Pasaia, Spain
Current Conditions -  °F | °C
As of 6:00 AM on Saturday 29 Nov 2014 (Local Time) from LESO Reporting Station
Light Rain Light Rain  
Wind Chill: 59°   Ceiling: Unl
Heat Index: 59°   Visibility: 6mi
Dew Point: 55°   Wind: 0mph
Humidity: 88%   Direction: NA
Pressure: 29.41"   Gusts: NA
Location:  43.33°N, 1.93°W
Report Text: LESO 290500Z 00000KT 9999 -RA NSC 15/13 Q0996
Loading
Personal Weather Stations






























Interactive Weather Map New forecast layout! Learn more

10-Day Weather Forecast

Advertisements
Track Severe Weather on mobile